Report METAR

 

LIPQ - Ronchi Legionari, Italy
Distance from station: SSO 4km
Dati ricevuti: 20/09/2017 15:50
Parz. nuvoloso
Parz. nuvoloso
 Vento da SE
Vento: SE 9 km/h
Temperatura: 18°C
P.to Rugiada: 9°C
Umidità: 56%
Barometro: 1015 hPa
Nuvole: Parz. nuvoloso
Visibility: 10 km
Cloud details: Parz. nuvoloso 2134 m
2017/09/20 15:50 LIPQ 201550Z 13005KT 9999 SCT070 18/09 Q1015
LIVT - Trieste, Italy
Distance from station: SE 27km
Dati ricevuti: 20/09/2017 15:55
Sereno
Sereno
 Vento da ENE
Vento: ENE 2 km/h
Temperatura: 17°C
P.to Rugiada: 10°C
Umidità: 64%
Barometro: 1015 hPa
Summary: Sereno
Visibility: superiore a 10 km
2017/09/20 15:55 LIVT 201555Z 06001KT CAVOK 17/10 Q1015 RMK BKN BKN070 QUK 0 QUL 0 VIS MAR 20 KM VIS MIN 9999
 
LIPI - Rivolto (it-Afb), Italy
Distance from station: ONO 37km
Dati ricevuti: 20/09/2017 13:55
DATI Obsoleti
Few Clouds
Few Clouds
 Vento da Variabile
Vento: Variabile 0 km/h
Temperatura: 18°C
P.to Rugiada: 10°C
Umidità: 60%
Barometro: 1015 hPa
Nuvole: Few Clouds
Visibility: 10 km
Cloud details: Few Clouds 3048 m
2017/09/20 13:55 LIPI 201355Z /////KT 9999 FEW100 18/10 Q1015 RMK BKN BKN130 VIS MIN 9999 WIND THR06 24002KT WIND THR24 27004KT BLU
LJPZ - Portoroz, Slovenia
Distance from station: SSE 43km
Dati ricevuti: 20/09/2017 16:00
Sereno
Sereno
 Vento da N
Vento: N 4 km/h
Temperatura: 20°C
P.to Rugiada: 9°C
Umidità: 49%
Barometro: 1015 hPa
Summary: Sereno
Visibility: superiore a 10 km
2017/09/20 16:00 LJPZ 201600Z 35002KT CAVOK 20/09 Q1015
 
LIPA - Aviano (it/Us-Af, Italy
Distance from station: ONO 73km
Dati ricevuti: 20/09/2017 15:55
Parz. nuvoloso
Parz. nuvoloso
 Vento da S
Vento: S 4 km/h
Temperatura: 20°C
P.to Rugiada: 14°C
Umidità: 69%
Barometro: 1015 hPa
Nuvole: Parz. nuvoloso
Visibility: 10 km
Cloud details: Parz. nuvoloso 3658 m
2017/09/20 15:55 LIPA 201555Z 17002KT 9999 SCT120 20/14 Q1015 RMK SCT VIS MIN 9999 WIND THR05 00000KT WIND THR23 10003KT A2998 BLU
LIVO - Tarvisio, Italy
Distance from station: N 73km
Dati ricevuti: 20/09/2017 15:55
Few Clouds
Few Clouds
 Vento da calmo
Vento: Calma
Temperatura: 11°C
P.to Rugiada: 8°C
Umidità: 82%
Barometro: 1016 hPa
Nuvole: Few Clouds
Visibility: 10 km
Cloud details: Few Clouds 1067 m
2017/09/20 15:55 LIVO 201555Z 00000KT 9999 FEW035 11/08 Q1016 RMK SCT SCT070 VIS MIN 9999
 
LJLJ - Ljubljana/Brnik, Slovenia
Distance from station: ENE 86km
Dati ricevuti: 20/09/2017 16:00
Molto nuvoloso
Molto nuvoloso
 Vento da SO
Vento: SO 6 km/h
Temperatura: 12°C
P.to Rugiada: 10°C
Umidità: 88%
Barometro: 1016 hPa
Nuvole: Molto nuvoloso
Visibility: 10 km
Cloud details: Few Clouds 1524 m
Molto nuvoloso 3962 m
2017/09/20 16:00 LJLJ 201600Z 22003KT 170V270 9999 FEW050 BKN130 12/10 Q1016 NOSIG
LIPZ - Venezia/Tessera, Italy
Distance from station: OSO 96km
Dati ricevuti: 20/09/2017 15:50
Sereno
Sereno
 Vento da SE
Vento: SE 15 km/h
Temperatura: 20°C
P.to Rugiada: 12°C
Umidità: 60%
Barometro: 1014 hPa
Summary: Sereno
Visibility: superiore a 10 km
2017/09/20 15:50 LIPZ 201550Z 14008KT CAVOK 20/12 Q1014 NOSIG
 
LIPH - Treviso(Civ/It-A, Italy
Distance from station: OSO 105km
Dati ricevuti: 20/09/2017 15:50
Sereno
Sereno
 Vento da SE
Vento: SE 6 km/h
Temperatura: 23°C
P.to Rugiada: 6°C
Umidità: 33%
Barometro: 1014 hPa
Summary: Sereno
Visibility: superiore a 10 km
2017/09/20 15:50 LIPH 201550Z 13003KT 100V180 CAVOK 23/06 Q1014
LDRI - Rijeka/Omisalj, Croatia
Distance from station: SE 109km
Dati ricevuti: 20/09/2017 16:00
Parz. nuvoloso
Parz. nuvoloso
 Vento da NNE
Vento: NNE 7 km/h
Temperatura: 16°C
P.to Rugiada: 7°C
Umidità: 55%
Barometro: 1015 hPa
Nuvole: Parz. nuvoloso
Visibility: 10 km
Cloud details: Parz. nuvoloso 1676 m
2017/09/20 16:00 LDRI 201600Z 03004KT 330V060 9999 SCT055 16/07 Q1015
 
LOWK - Klagenfurt(Civ/M, Austria
Distance from station: NE 110km
Dati ricevuti: 20/09/2017 15:50
Molto nuvoloso
Molto nuvoloso
 Vento da Variabile
Vento: Variabile 2 km/h
Temperatura: 14°C
P.to Rugiada: 9°C
Umidità: 72%
Barometro: 1017 hPa
Nuvole: Molto nuvoloso
Visibility: 10 km
Cloud details: Few Clouds 1524 m
Parz. nuvoloso 2134 m
Molto nuvoloso 3962 m
2017/09/20 15:50 LOWK 201550Z VRB01KT 9999 FEW050 SCT070 BKN130 14/09 Q1017 NOSIG
LIPS - Istrana (it-Afb), Italy
Distance from station: O 111km
Dati ricevuti: 20/09/2017 15:55
Few Clouds
Few Clouds
 Vento da S
Vento: S 9 km/h
Temperatura: 22°C
P.to Rugiada: 7°C
Umidità: 38%
Barometro: 1014 hPa
Nuvole: Few Clouds
Visibility: 10 km
Cloud details: Few Clouds 762 m
2017/09/20 15:55 LIPS 201555Z 17005KT 9999 FEW025 22/07 Q1014 RMK FEW VIS MIN 9999 WIND THR26 13002KT WIND THR08 00000KT BLU
 
LDPL - Pula, Croatia
Distance from station: SSE 112km
Dati ricevuti: 20/09/2017 16:00
Few Clouds
Few Clouds
 Vento da N
Vento: N 7 km/h
Temperatura: 16°C
P.to Rugiada: 11°C
Umidità: 72%
Barometro: 1016 hPa
Nuvole: Few Clouds
Visibility: 10 km
Cloud details: Few Clouds 1372 m
2017/09/20 16:00 LDPL 201600Z 36004KT 9999 FEW045 16/11 Q1016 NOSIG
LIVD - Dobbiaco, Italy
Distance from station: NO 138km
Dati ricevuti: 20/09/2017 15:55
Few Clouds
Few Clouds
 Vento da calmo
Vento: Calma
Temperatura: 10°C
P.to Rugiada: 2°C
Umidità: 58%
Barometro: 1019 hPa
Nuvole: Few Clouds
Visibility: 10 km
Cloud details: Few Clouds 1219 m
2017/09/20 15:55 LIVD 201555Z 00000KT 9999 FEW040 10/02 Q1019 RMK BKN BKN070 VIS MIN 9999
 
LIPU - Padova (civ/It-A, Italy
Distance from station: OSO 139km
Dati ricevuti: 20/09/2017 06:00
DATI Obsoleti
Molto nuvoloso
Molto nuvoloso
 Vento da Variabile
Vento: Variabile 4 km/h
Temperatura: 13°C
P.to Rugiada: 9°C
Umidità: 77%
Barometro: 1013 hPa
Nuvole: Molto nuvoloso
Visibility: 10 km
Cloud details: Molto nuvoloso 1829 m
2017/09/20 06:00 LIPU 200600Z VRB02KT 9999 BKN060 13/09 Q1013
LIVR - Rolle Pass, Italy
Distance from station: ONO 142km
Dati ricevuti: 20/09/2017 15:55
Few Clouds
Few Clouds
 Vento da NO
Vento: NO 15 km/h
Temperatura: 4°C
Temperatura Vento: 1°C
P.to Rugiada: -5°C
Umidità: 52%
Barometro: 1018 hPa
Nuvole: Few Clouds
Visibility: 10 km
Cloud details: Few Clouds 1219 m
2017/09/20 15:55 LIVR 201555Z 32008KT 9999 FEW040 04/M05 Q1018 RMK SCT MON LIB VIS MIN 9999
 
LJCE - Cerklje, Slovenia
Distance from station: E 157km
Dati ricevuti: 20/09/2017 16:00
Parz. nuvoloso
Parz. nuvoloso
 Vento da E
Vento: E 7 km/h
Temperatura: 13°C
P.to Rugiada: 9°C
Umidità: 77%
Barometro: 1016 hPa
Nuvole: Parz. nuvoloso
Visibility: 10 km
2017/09/20 16:00 LJCE 201600Z AUTO 10004KT 9999 NSC 13/09 Q1016
LDLO - Losinj Island, Croatia
Distance from station: SSE 159km
Dati ricevuti: 17/09/2017 18:00
DATI Obsoleti
Parz. nuvoloso
Parz. nuvoloso
 Vento da SO
Vento: SO 9 km/h
Temperatura: 21°C
P.to Rugiada: 11°C
Umidità: 53%
Barometro: 1013 hPa
Nuvole: Parz. nuvoloso
Visibility: 10 km
Cloud details: Parz. nuvoloso 1219 m
2017/09/17 18:00 LDLO 171800Z 22005KT 9999 SCT040 21/11 Q1013
 
LOXZ - Zeltweg (mil), Austria
Distance from station: NNE 179km
Dati ricevuti: 20/09/2017 15:50
Molto nuvoloso
Molto nuvoloso
 Vento da E
Vento: E 9 km/h
Temperatura: 11°C
P.to Rugiada: 3°C
Umidità: 58%
Barometro: 1018 hPa
Nuvole: Molto nuvoloso
Cloud details: Few Clouds 1219 m
Molto nuvoloso 1829 m
Molto nuvoloso 3962 m
2017/09/20 15:50 LOXZ 201550Z 09005KT 30KM FEW040SC BKN060SC BKN130AC 11/03 Q1018 NOSIG
LIPB - Bolzano(Civ/It-A, Italy
Distance from station: ONO 181km
Dati ricevuti: 20/09/2017 15:50
Sereno
Sereno
 Vento da ENE
Vento: ENE 15 km/h
Temperatura: 20°C
P.to Rugiada: 0°C
Umidità: 26%
Barometro: 1016 hPa
Summary: Sereno
Visibility: superiore a 10 km
2017/09/20 15:50 LIPB 201550Z 06008KT 010V170 CAVOK 20/00 Q1016